PWSweather.com
Personal Weather Stations
Station Observations
ITROMSHA6
HarstadNO 9407

HarstadNO 9407

Lat: 68.7814767, Lon: 16.5297091

Elevation: 145

Station Type: Davis Vantage Pro2

High Low Average
Temperature 37.7°F3.2°C 31.5°F-0.3°C 34.3°F1.3°C
Dew Point 32.4°F0.2°C 18.0°F-7.8°C 25.0°F-3.9°C
Winds 19.0 mph 30.6 kmh Calm Calm 5.0 mph SE8.0 kmh SE
Wind Gusts 24.0 mph38.6 kmh -- 2.0 mph3.2 kmh
Humidity 91% 51% 69%
Pressure 29.68 in1005.1 mb 29.49 in998.6 mb -
Precipitation 0.04 in1.0 mm - -
Hour Temp Dew Point Humidity Winds Wind Gusts Pressure Precip Precip Rate Daily Precip Total
12:00 AM 33.0°F0.6°C 22.3°F-5.4°C 64% 10.0 mph NE16.1 kmh NE -- 29.67 in1004.7 mb 0.00 in0.0 mm 0.00 in0.0 mm 0.00 in0.0 mm
12:05 AM 33.1°F0.6°C 22.3°F-5.4°C 64% 9.0 mph NNE14.5 kmh NNE -- 29.67 in1004.7 mb 0.00 in0.0 mm 0.00 in0.0 mm 0.00 in0.0 mm
12:10 AM 33.0°F0.6°C 23.0°F-5.0°C 66% 15.0 mph NE24.1 kmh NE -- 29.67 in1004.7 mb 0.00 in0.0 mm 0.00 in0.0 mm 0.00 in0.0 mm
12:15 AM 32.9°F0.5°C 22.8°F-5.1°C 66% 11.0 mph NE17.7 kmh NE 18.0 mph29.0 kmh 29.67 in1004.7 mb 0.00 in0.0 mm 0.00 in0.0 mm 0.00 in0.0 mm
12:20 AM 32.8°F0.4°C 20.8°F-6.2°C 61% 10.0 mph E16.1 kmh E -- 29.67 in1004.7 mb 0.00 in0.0 mm 0.00 in0.0 mm 0.00 in0.0 mm
12:25 AM 32.8°F0.4°C 21.2°F-6.0°C 62% 8.0 mph NE12.9 kmh NE -- 29.67 in1004.7 mb 0.00 in0.0 mm 0.00 in0.0 mm 0.00 in0.0 mm
12:30 AM 32.7°F0.4°C 21.2°F-6.0°C 62% 10.0 mph NE16.1 kmh NE -- 29.67 in1004.7 mb 0.00 in0.0 mm 0.00 in0.0 mm 0.00 in0.0 mm
12:35 AM 32.7°F0.4°C 20.8°F-6.2°C 61% 12.0 mph NE19.3 kmh NE -- 29.68 in1005.1 mb 0.00 in0.0 mm 0.00 in0.0 mm 0.00 in0.0 mm
12:40 AM 32.7°F0.4°C 20.8°F-6.2°C 61% 19.0 mph NE30.6 kmh NE 22.0 mph35.4 kmh 29.68 in1005.1 mb 0.00 in0.0 mm 0.00 in0.0 mm 0.00 in0.0 mm
12:45 AM 32.6°F0.3°C 19.8°F-6.8°C 59% 14.0 mph ENE22.5 kmh ENE -- 29.67 in1004.7 mb 0.00 in0.0 mm 0.00 in0.0 mm 0.00 in0.0 mm
12:50 AM 32.5°F0.3°C 19.8°F-6.8°C 59% 16.0 mph NE25.7 kmh NE -- 29.67 in1004.7 mb 0.00 in0.0 mm 0.00 in0.0 mm 0.00 in0.0 mm
12:55 AM 32.4°F0.2°C 20.5°F-6.4°C 61% 11.0 mph NNE17.7 kmh NNE -- 29.67 in1004.7 mb 0.00 in0.0 mm 0.00 in0.0 mm 0.00 in0.0 mm
01:00 AM 32.3°F0.2°C 20.5°F-6.4°C 61% 10.0 mph NE16.1 kmh NE -- 29.67 in1004.7 mb 0.00 in0.0 mm 0.00 in0.0 mm 0.00 in0.0 mm
01:05 AM 32.2°F0.1°C 19.4°F-7.0°C 59% 12.0 mph NE19.3 kmh NE 20.0 mph32.2 kmh 29.67 in1004.7 mb 0.00 in0.0 mm 0.00 in0.0 mm 0.00 in0.0 mm
01:10 AM 32.2°F0.1°C 19.9°F-6.7°C 60% 13.0 mph NE20.9 kmh NE -- 29.68 in1005.1 mb 0.00 in0.0 mm 0.00 in0.0 mm 0.00 in0.0 mm
01:15 AM 32.2°F0.1°C 19.9°F-6.7°C 60% 8.0 mph NE12.9 kmh NE -- 29.67 in1004.7 mb 0.00 in0.0 mm 0.00 in0.0 mm 0.00 in0.0 mm
01:20 AM 32.2°F0.1°C 19.9°F-6.7°C 60% 11.0 mph NE17.7 kmh NE -- 29.68 in1005.1 mb 0.00 in0.0 mm 0.00 in0.0 mm 0.00 in0.0 mm
01:25 AM 32.2°F0.1°C 18.7°F-7.4°C 57% 12.0 mph NE19.3 kmh NE -- 29.68 in1005.1 mb 0.00 in0.0 mm 0.00 in0.0 mm 0.00 in0.0 mm
01:30 AM 32.2°F0.1°C 19.0°F-7.2°C 58% 14.0 mph NE22.5 kmh NE 23.0 mph37.0 kmh 29.67 in1004.7 mb 0.00 in0.0 mm 0.00 in0.0 mm 0.00 in0.0 mm
01:35 AM 32.1°F0.1°C 19.0°F-7.2°C 58% 13.0 mph ENE20.9 kmh ENE -- 29.67 in1004.7 mb 0.00 in0.0 mm 0.00 in0.0 mm 0.00 in0.0 mm
01:40 AM 32.0°F0.0°C 18.9°F-7.3°C 58% 18.0 mph NE29.0 kmh NE -- 29.67 in1004.7 mb 0.00 in0.0 mm 0.00 in0.0 mm 0.00 in0.0 mm
01:45 AM 31.9°F-0.1°C 18.0°F-7.8°C 56% 13.0 mph NE20.9 kmh NE -- 29.67 in1004.7 mb 0.00 in0.0 mm 0.00 in0.0 mm 0.00 in0.0 mm
01:50 AM 31.9°F-0.1°C 18.0°F-7.8°C 56% 7.0 mph E11.3 kmh E -- 29.67 in1004.7 mb 0.00 in0.0 mm 0.00 in0.0 mm 0.00 in0.0 mm
01:55 AM 31.9°F-0.1°C 18.7°F-7.4°C 58% 14.0 mph NE22.5 kmh NE 24.0 mph38.6 kmh 29.67 in1004.7 mb 0.00 in0.0 mm 0.00 in0.0 mm 0.00 in0.0 mm
02:00 AM 31.9°F-0.1°C 19.2°F-7.1°C 59% 11.0 mph ENE17.7 kmh ENE -- 29.67 in1004.7 mb 0.00 in0.0 mm 0.00 in0.0 mm 0.00 in0.0 mm
02:05 AM 31.8°F-0.1°C 19.2°F-7.1°C 59% 7.0 mph ENE11.3 kmh ENE -- 29.67 in1004.7 mb 0.00 in0.0 mm 0.00 in0.0 mm 0.00 in0.0 mm
02:10 AM 31.7°F-0.2°C 20.1°F-6.6°C 62% 8.0 mph NNE12.9 kmh NNE -- 29.67 in1004.7 mb 0.00 in0.0 mm 0.00 in0.0 mm 0.00 in0.0 mm
02:15 AM 31.8°F-0.1°C 19.9°F-6.7°C 61% 10.0 mph NNE16.1 kmh NNE -- 29.67 in1004.7 mb 0.00 in0.0 mm 0.00 in0.0 mm 0.00 in0.0 mm
02:20 AM 31.7°F-0.2°C 19.8°F-6.8°C 61% 13.0 mph NE20.9 kmh NE 20.0 mph32.2 kmh 29.67 in1004.7 mb 0.00 in0.0 mm 0.00 in0.0 mm 0.00 in0.0 mm
02:25 AM 31.6°F-0.2°C 20.1°F-6.6°C 62% 12.0 mph ENE19.3 kmh ENE -- 29.67 in1004.7 mb 0.00 in0.0 mm 0.00 in0.0 mm 0.00 in0.0 mm
02:30 AM 31.6°F-0.2°C 20.1°F-6.6°C 62% 19.0 mph NE30.6 kmh NE -- 29.67 in1004.7 mb 0.00 in0.0 mm 0.00 in0.0 mm 0.00 in0.0 mm
02:35 AM 31.6°F-0.2°C 20.5°F-6.4°C 63% 8.0 mph ENE12.9 kmh ENE -- 29.67 in1004.7 mb 0.00 in0.0 mm 0.00 in0.0 mm 0.00 in0.0 mm
02:40 AM 31.8°F-0.1°C 21.0°F-6.1°C 64% 13.0 mph NNE20.9 kmh NNE -- 29.67 in1004.7 mb 0.00 in0.0 mm 0.00 in0.0 mm 0.00 in0.0 mm
02:45 AM 31.7°F-0.2°C 20.8°F-6.2°C 64% 11.0 mph NE17.7 kmh NE 20.0 mph32.2 kmh 29.67 in1004.7 mb 0.00 in0.0 mm 0.00 in0.0 mm 0.00 in0.0 mm
02:50 AM 31.6°F-0.2°C 20.5°F-6.4°C 63% 12.0 mph NE19.3 kmh NE -- 29.67 in1004.7 mb 0.00 in0.0 mm 0.00 in0.0 mm 0.00 in0.0 mm
02:55 AM 31.7°F-0.2°C 20.8°F-6.2°C 64% 6.0 mph NE9.7 kmh NE -- 29.67 in1004.7 mb 0.00 in0.0 mm 0.00 in0.0 mm 0.00 in0.0 mm
03:00 AM 31.7°F-0.2°C 21.2°F-6.0°C 65% 11.0 mph NNE17.7 kmh NNE -- 29.67 in1004.7 mb 0.00 in0.0 mm 0.00 in0.0 mm 0.00 in0.0 mm
03:05 AM 31.7°F-0.2°C 21.2°F-6.0°C 65% 16.0 mph ENE25.7 kmh ENE -- 29.67 in1004.7 mb 0.00 in0.0 mm 0.00 in0.0 mm 0.00 in0.0 mm
03:10 AM 31.7°F-0.2°C 21.6°F-5.8°C 66% 12.0 mph ENE19.3 kmh ENE 20.0 mph32.2 kmh 29.67 in1004.7 mb 0.00 in0.0 mm 0.00 in0.0 mm 0.00 in0.0 mm
03:15 AM 31.7°F-0.2°C 21.2°F-6.0°C 65% 12.0 mph ENE19.3 kmh ENE -- 29.66 in1004.4 mb 0.00 in0.0 mm 0.00 in0.0 mm 0.00 in0.0 mm
03:20 AM 31.7°F-0.2°C 21.6°F-5.8°C 66% 10.0 mph ENE16.1 kmh ENE -- 29.66 in1004.4 mb 0.00 in0.0 mm 0.00 in0.0 mm 0.00 in0.0 mm
03:25 AM 31.6°F-0.2°C 21.6°F-5.8°C 66% 10.0 mph NE16.1 kmh NE -- 29.66 in1004.4 mb 0.00 in0.0 mm 0.00 in0.0 mm 0.00 in0.0 mm
03:30 AM 31.6°F-0.2°C 21.2°F-6.0°C 65% 9.0 mph NE14.5 kmh NE -- 29.66 in1004.4 mb 0.00 in0.0 mm 0.00 in0.0 mm 0.00 in0.0 mm
03:35 AM 31.6°F-0.2°C 21.2°F-6.0°C 65% 7.0 mph NE11.3 kmh NE 18.0 mph29.0 kmh 29.67 in1004.7 mb 0.00 in0.0 mm 0.00 in0.0 mm 0.00 in0.0 mm
03:40 AM 31.5°F-0.3°C 21.4°F-5.9°C 66% 6.0 mph ENE9.7 kmh ENE -- 29.66 in1004.4 mb 0.00 in0.0 mm 0.00 in0.0 mm 0.00 in0.0 mm
03:45 AM 31.5°F-0.3°C 21.0°F-6.1°C 65% 8.0 mph NNE12.9 kmh NNE -- 29.66 in1004.4 mb 0.00 in0.0 mm 0.00 in0.0 mm 0.00 in0.0 mm
03:50 AM 31.6°F-0.2°C 21.2°F-6.0°C 65% 8.0 mph NE12.9 kmh NE -- 29.66 in1004.4 mb 0.00 in0.0 mm 0.00 in0.0 mm 0.00 in0.0 mm
03:55 AM 31.6°F-0.2°C 21.2°F-6.0°C 65% 7.0 mph E11.3 kmh E -- 29.67 in1004.7 mb 0.00 in0.0 mm 0.00 in0.0 mm 0.00 in0.0 mm
04:00 AM 31.6°F-0.2°C 21.2°F-6.0°C 65% 11.0 mph NE17.7 kmh NE 14.0 mph22.5 kmh 29.67 in1004.7 mb 0.00 in0.0 mm 0.00 in0.0 mm 0.00 in0.0 mm
04:05 AM 31.7°F-0.2°C 21.2°F-6.0°C 65% 4.0 mph NE6.4 kmh NE -- 29.67 in1004.7 mb 0.00 in0.0 mm 0.00 in0.0 mm 0.00 in0.0 mm
04:10 AM 31.9°F-0.1°C 21.0°F-6.1°C 64% 7.0 mph NE11.3 kmh NE -- 29.67 in1004.7 mb 0.00 in0.0 mm 0.00 in0.0 mm 0.00 in0.0 mm
04:15 AM 32.0°F0.0°C 20.8°F-6.2°C 63% 7.0 mph NE11.3 kmh NE -- 29.66 in1004.4 mb 0.00 in0.0 mm 0.00 in0.0 mm 0.00 in0.0 mm
04:20 AM 32.1°F0.1°C 21.0°F-6.1°C 63% 8.0 mph NE12.9 kmh NE -- 29.66 in1004.4 mb 0.00 in0.0 mm 0.00 in0.0 mm 0.00 in0.0 mm
04:25 AM 31.9°F-0.1°C 20.7°F-6.3°C 63% 7.0 mph NE11.3 kmh NE 14.0 mph22.5 kmh 29.66 in1004.4 mb 0.00 in0.0 mm 0.00 in0.0 mm 0.00 in0.0 mm
04:30 AM 31.8°F-0.1°C 20.7°F-6.3°C 63% 5.0 mph ENE8.0 kmh ENE -- 29.66 in1004.4 mb 0.00 in0.0 mm 0.00 in0.0 mm 0.00 in0.0 mm
04:35 AM 32.2°F0.1°C 20.3°F-6.5°C 61% 5.0 mph ENE8.0 kmh ENE -- 29.66 in1004.4 mb 0.00 in0.0 mm 0.00 in0.0 mm 0.00 in0.0 mm
04:40 AM 32.4°F0.2°C 20.8°F-6.2°C 62% 6.0 mph ENE9.7 kmh ENE -- 29.66 in1004.4 mb 0.00 in0.0 mm 0.00 in0.0 mm 0.00 in0.0 mm
04:45 AM 32.4°F0.2°C 20.1°F-6.6°C 60% 8.0 mph ENE12.9 kmh ENE -- 29.66 in1004.4 mb 0.00 in0.0 mm 0.00 in0.0 mm 0.00 in0.0 mm
04:50 AM 32.2°F0.1°C 19.9°F-6.7°C 60% 9.0 mph NE14.5 kmh NE 14.0 mph22.5 kmh 29.66 in1004.4 mb 0.00 in0.0 mm 0.00 in0.0 mm 0.00 in0.0 mm
04:55 AM 32.3°F0.2°C 20.1°F-6.6°C 60% 12.0 mph NE19.3 kmh NE -- 29.66 in1004.4 mb 0.00 in0.0 mm 0.00 in0.0 mm 0.00 in0.0 mm
05:00 AM 32.3°F0.2°C 20.1°F-6.6°C 60% 6.0 mph NE9.7 kmh NE -- 29.66 in1004.4 mb 0.00 in0.0 mm 0.00 in0.0 mm 0.00 in0.0 mm
05:05 AM 32.0°F0.0°C 19.8°F-6.8°C 60% 5.0 mph NE8.0 kmh NE -- 29.66 in1004.4 mb 0.00 in0.0 mm 0.00 in0.0 mm 0.00 in0.0 mm
05:10 AM 31.9°F-0.1°C 19.6°F-6.9°C 60% 7.0 mph NE11.3 kmh NE -- 29.66 in1004.4 mb 0.00 in0.0 mm 0.00 in0.0 mm 0.00 in0.0 mm
05:15 AM 31.8°F-0.1°C 19.6°F-6.9°C 60% 7.0 mph NE11.3 kmh NE 11.0 mph17.7 kmh 29.66 in1004.4 mb 0.00 in0.0 mm 0.00 in0.0 mm 0.00 in0.0 mm
05:20 AM 31.8°F-0.1°C 19.2°F-7.1°C 59% 6.0 mph NE9.7 kmh NE -- 29.66 in1004.4 mb 0.00 in0.0 mm 0.00 in0.0 mm 0.00 in0.0 mm
05:25 AM 31.9°F-0.1°C 19.2°F-7.1°C 59% 5.0 mph NNE8.0 kmh NNE -- 29.66 in1004.4 mb 0.00 in0.0 mm 0.00 in0.0 mm 0.00 in0.0 mm
05:30 AM 32.0°F0.0°C 18.9°F-7.3°C 58% 6.0 mph ENE9.7 kmh ENE -- 29.66 in1004.4 mb 0.00 in0.0 mm 0.00 in0.0 mm 0.00 in0.0 mm
05:35 AM 32.2°F0.1°C 19.0°F-7.2°C 58% 6.0 mph NE9.7 kmh NE -- 29.66 in1004.4 mb 0.00 in0.0 mm 0.00 in0.0 mm 0.00 in0.0 mm
05:40 AM 32.4°F0.2°C 19.6°F-6.9°C 59% 6.0 mph NNE9.7 kmh NNE 10.0 mph16.1 kmh 29.66 in1004.4 mb 0.00 in0.0 mm 0.00 in0.0 mm 0.00 in0.0 mm
05:45 AM 32.8°F0.4°C 19.6°F-6.9°C 58% 10.0 mph NE16.1 kmh NE -- 29.66 in1004.4 mb 0.00 in0.0 mm 0.00 in0.0 mm 0.00 in0.0 mm
05:50 AM 33.0°F0.6°C 19.9°F-6.7°C 58% 5.0 mph NE8.0 kmh NE -- 29.65 in1004.1 mb 0.00 in0.0 mm 0.00 in0.0 mm 0.00 in0.0 mm
05:55 AM 33.3°F0.7°C 20.5°F-6.4°C 59% 3.0 mph NE4.8 kmh NE -- 29.66 in1004.4 mb 0.00 in0.0 mm 0.00 in0.0 mm 0.00 in0.0 mm
06:00 AM 33.7°F0.9°C 19.6°F-6.9°C 56% 3.0 mph NE4.8 kmh NE -- 29.65 in1004.1 mb 0.00 in0.0 mm 0.00 in0.0 mm 0.00 in0.0 mm
06:05 AM 33.8°F1.0°C 20.7°F-6.3°C 58% 4.0 mph NE6.4 kmh NE 10.0 mph16.1 kmh 29.65 in1004.1 mb 0.00 in0.0 mm 0.00 in0.0 mm 0.00 in0.0 mm
06:10 AM 33.9°F1.1°C 20.3°F-6.5°C 57% 5.0 mph E8.0 kmh E -- 29.65 in1004.1 mb 0.00 in0.0 mm 0.00 in0.0 mm 0.00 in0.0 mm
06:15 AM 33.8°F1.0°C 19.8°F-6.8°C 56% 4.0 mph NE6.4 kmh NE -- 29.65 in1004.1 mb 0.00 in0.0 mm 0.00 in0.0 mm 0.00 in0.0 mm
06:20 AM 33.5°F0.8°C 19.4°F-7.0°C 56% 5.0 mph ENE8.0 kmh ENE -- 29.65 in1004.1 mb 0.00 in0.0 mm 0.00 in0.0 mm 0.00 in0.0 mm
06:25 AM 33.7°F0.9°C 19.6°F-6.9°C 56% 3.0 mph NE4.8 kmh NE -- 29.65 in1004.1 mb 0.00 in0.0 mm 0.00 in0.0 mm 0.00 in0.0 mm
06:30 AM 34.4°F1.3°C 20.7°F-6.3°C 57% 5.0 mph E8.0 kmh E 8.0 mph12.9 kmh 29.64 in1003.7 mb 0.00 in0.0 mm 0.00 in0.0 mm 0.00 in0.0 mm
06:35 AM 34.8°F1.6°C 19.6°F-6.9°C 53% 4.0 mph NE6.4 kmh NE -- 29.64 in1003.7 mb 0.00 in0.0 mm 0.00 in0.0 mm 0.00 in0.0 mm
06:40 AM 34.8°F1.6°C 19.0°F-7.2°C 52% 5.0 mph NE8.0 kmh NE -- 29.64 in1003.7 mb 0.00 in0.0 mm 0.00 in0.0 mm 0.00 in0.0 mm
06:45 AM 34.8°F1.6°C 19.6°F-6.9°C 53% 3.0 mph NNW4.8 kmh NNW -- 29.64 in1003.7 mb 0.00 in0.0 mm 0.00 in0.0 mm 0.00 in0.0 mm
06:50 AM 35.1°F1.7°C 19.2°F-7.1°C 52% 4.0 mph N6.4 kmh N -- 29.64 in1003.7 mb 0.00 in0.0 mm 0.00 in0.0 mm 0.00 in0.0 mm
06:55 AM 35.4°F1.9°C 19.0°F-7.2°C 51% 2.0 mph WNW3.2 kmh WNW 10.0 mph16.1 kmh 29.64 in1003.7 mb 0.00 in0.0 mm 0.00 in0.0 mm 0.00 in0.0 mm
07:00 AM 35.2°F1.8°C 19.4°F-7.0°C 52% 4.0 mph N6.4 kmh N -- 29.64 in1003.7 mb 0.00 in0.0 mm 0.00 in0.0 mm 0.00 in0.0 mm
07:05 AM 35.3°F1.8°C 19.4°F-7.0°C 52% 5.0 mph NW8.0 kmh NW -- 29.64 in1003.7 mb 0.00 in0.0 mm 0.00 in0.0 mm 0.00 in0.0 mm
07:10 AM 35.3°F1.8°C 19.4°F-7.0°C 52% 8.0 mph NE12.9 kmh NE -- 29.64 in1003.7 mb 0.00 in0.0 mm 0.00 in0.0 mm 0.00 in0.0 mm
07:15 AM 35.2°F1.8°C 19.8°F-6.8°C 53% 2.0 mph NNE3.2 kmh NNE -- 29.64 in1003.7 mb 0.00 in0.0 mm 0.00 in0.0 mm 0.00 in0.0 mm
07:20 AM 35.2°F1.8°C 20.3°F-6.5°C 54% 6.0 mph NE9.7 kmh NE 9.0 mph14.5 kmh 29.64 in1003.7 mb 0.00 in0.0 mm 0.00 in0.0 mm 0.00 in0.0 mm
07:25 AM 35.1°F1.7°C 20.5°F-6.4°C 55% 4.0 mph NNE6.4 kmh NNE -- 29.64 in1003.7 mb 0.00 in0.0 mm 0.00 in0.0 mm 0.00 in0.0 mm
07:30 AM 35.1°F1.7°C 20.1°F-6.6°C 54% 6.0 mph NE9.7 kmh NE -- 29.64 in1003.7 mb 0.00 in0.0 mm 0.00 in0.0 mm 0.00 in0.0 mm
07:35 AM 35.1°F1.7°C 20.5°F-6.4°C 55% 1.0 mph NNW1.6 kmh NNW -- 29.63 in1003.4 mb 0.00 in0.0 mm 0.00 in0.0 mm 0.00 in0.0 mm
07:40 AM 35.4°F1.9°C 20.8°F-6.2°C 55% 7.0 mph NE11.3 kmh NE -- 29.64 in1003.7 mb 0.00 in0.0 mm 0.00 in0.0 mm 0.00 in0.0 mm
07:45 AM 35.5°F1.9°C 20.5°F-6.4°C 54% 11.0 mph NNE17.7 kmh NNE 15.0 mph24.1 kmh 29.64 in1003.7 mb 0.00 in0.0 mm 0.00 in0.0 mm 0.00 in0.0 mm
07:50 AM 35.4°F1.9°C 20.5°F-6.4°C 54% 6.0 mph N9.7 kmh N -- 29.63 in1003.4 mb 0.00 in0.0 mm 0.00 in0.0 mm 0.00 in0.0 mm
07:55 AM 35.6°F2.0°C 20.7°F-6.3°C 54% 3.0 mph N4.8 kmh N -- 29.63 in1003.4 mb 0.00 in0.0 mm 0.00 in0.0 mm 0.00 in0.0 mm
08:00 AM 35.7°F2.1°C 21.6°F-5.8°C 56% 10.0 mph NE16.1 kmh NE -- 29.63 in1003.4 mb 0.00 in0.0 mm 0.00 in0.0 mm 0.00 in0.0 mm
08:05 AM 35.4°F1.9°C 21.7°F-5.7°C 57% 5.0 mph NE8.0 kmh NE -- 29.63 in1003.4 mb 0.00 in0.0 mm 0.00 in0.0 mm 0.00 in0.0 mm
08:10 AM 35.4°F1.9°C 22.1°F-5.5°C 58% 12.0 mph NE19.3 kmh NE 12.0 mph19.3 kmh 29.63 in1003.4 mb 0.00 in0.0 mm 0.00 in0.0 mm 0.00 in0.0 mm
08:15 AM 35.4°F1.9°C 23.4°F-4.8°C 61% 8.0 mph ENE12.9 kmh ENE -- 29.63 in1003.4 mb 0.00 in0.0 mm 0.00 in0.0 mm 0.00 in0.0 mm
08:20 AM 35.9°F2.2°C 23.4°F-4.8°C 60% 1.0 mph N1.6 kmh N -- 29.63 in1003.4 mb 0.00 in0.0 mm 0.00 in0.0 mm 0.00 in0.0 mm
08:25 AM 36.0°F2.2°C 24.3°F-4.3°C 62% 7.0 mph WNW11.3 kmh WNW -- 29.63 in1003.4 mb 0.00 in0.0 mm 0.00 in0.0 mm 0.00 in0.0 mm
08:30 AM 35.4°F1.9°C 24.4°F-4.2°C 64% 4.0 mph W6.4 kmh W -- 29.63 in1003.4 mb 0.00 in0.0 mm 0.00 in0.0 mm 0.00 in0.0 mm
08:35 AM 35.0°F1.7°C 25.2°F-3.8°C 67% 2.0 mph ENE3.2 kmh ENE 8.0 mph12.9 kmh 29.63 in1003.4 mb 0.00 in0.0 mm 0.00 in0.0 mm 0.00 in0.0 mm
08:40 AM 35.2°F1.8°C 25.7°F-3.5°C 68% 3.0 mph NNE4.8 kmh NNE -- 29.62 in1003.0 mb 0.00 in0.0 mm 0.00 in0.0 mm 0.00 in0.0 mm
08:45 AM 35.7°F2.1°C 25.5°F-3.6°C 66% 7.0 mph NNE11.3 kmh NNE -- 29.62 in1003.0 mb 0.00 in0.0 mm 0.00 in0.0 mm 0.00 in0.0 mm
08:50 AM 35.2°F1.8°C 25.0°F-3.9°C 66% 2.0 mph NNW3.2 kmh NNW -- 29.62 in1003.0 mb 0.00 in0.0 mm 0.00 in0.0 mm 0.00 in0.0 mm
08:55 AM 35.2°F1.8°C 25.0°F-3.9°C 66% 8.0 mph NNE12.9 kmh NNE -- 29.62 in1003.0 mb 0.00 in0.0 mm 0.00 in0.0 mm 0.00 in0.0 mm
09:00 AM 35.5°F1.9°C 24.4°F-4.2°C 64% 5.0 mph NNE8.0 kmh NNE 11.0 mph17.7 kmh 29.62 in1003.0 mb 0.00 in0.0 mm 0.00 in0.0 mm 0.00 in0.0 mm
09:05 AM 35.1°F1.7°C 24.1°F-4.4°C 64% 7.0 mph NNE11.3 kmh NNE -- 29.62 in1003.0 mb 0.00 in0.0 mm 0.00 in0.0 mm 0.00 in0.0 mm
09:10 AM 34.7°F1.5°C 24.1°F-4.4°C 65% 4.0 mph N6.4 kmh N -- 29.62 in1003.0 mb 0.00 in0.0 mm 0.00 in0.0 mm 0.00 in0.0 mm
09:15 AM 34.7°F1.5°C 24.1°F-4.4°C 65% 10.0 mph N16.1 kmh N -- 29.62 in1003.0 mb 0.00 in0.0 mm 0.00 in0.0 mm 0.00 in0.0 mm
09:20 AM 35.1°F1.7°C 24.1°F-4.4°C 64% 4.0 mph NE6.4 kmh NE -- 29.62 in1003.0 mb 0.00 in0.0 mm 0.00 in0.0 mm 0.00 in0.0 mm
09:25 AM 35.3°F1.8°C 24.3°F-4.3°C 64% 7.0 mph N11.3 kmh N 14.0 mph22.5 kmh 29.62 in1003.0 mb 0.00 in0.0 mm 0.00 in0.0 mm 0.00 in0.0 mm
09:30 AM 35.3°F1.8°C 24.3°F-4.3°C 64% 7.0 mph N11.3 kmh N -- 29.62 in1003.0 mb 0.00 in0.0 mm 0.00 in0.0 mm 0.00 in0.0 mm
09:35 AM 36.3°F2.4°C 26.1°F-3.3°C 66% 8.0 mph NE12.9 kmh NE -- 29.62 in1003.0 mb 0.00 in0.0 mm 0.00 in0.0 mm 0.00 in0.0 mm
09:40 AM 36.9°F2.7°C 26.6°F-3.0°C 66% 18.0 mph NE29.0 kmh NE -- 29.61 in1002.7 mb 0.00 in0.0 mm 0.00 in0.0 mm 0.00 in0.0 mm
09:45 AM 36.6°F2.6°C 25.7°F-3.5°C 64% 6.0 mph NE9.7 kmh NE -- 29.61 in1002.7 mb 0.00 in0.0 mm 0.00 in0.0 mm 0.00 in0.0 mm
09:50 AM 35.5°F1.9°C 25.2°F-3.8°C 66% 9.0 mph NW14.5 kmh NW 18.0 mph29.0 kmh 29.62 in1003.0 mb 0.00 in0.0 mm 0.00 in0.0 mm 0.00 in0.0 mm
09:55 AM 34.9°F1.6°C 25.3°F-3.7°C 68% 4.0 mph SE6.4 kmh SE -- 29.61 in1002.7 mb 0.00 in0.0 mm 0.00 in0.0 mm 0.00 in0.0 mm
10:00 AM 34.8°F1.6°C 25.0°F-3.9°C 67% 4.0 mph ENE6.4 kmh ENE -- 29.61 in1002.7 mb 0.00 in0.0 mm 0.00 in0.0 mm 0.00 in0.0 mm
10:05 AM 35.1°F1.7°C 24.4°F-4.2°C 65% 7.0 mph WSW11.3 kmh WSW -- 29.61 in1002.7 mb 0.00 in0.0 mm 0.00 in0.0 mm 0.00 in0.0 mm
10:10 AM 35.2°F1.8°C 23.5°F-4.7°C 62% 4.0 mph N6.4 kmh N -- 29.61 in1002.7 mb 0.00 in0.0 mm 0.00 in0.0 mm 0.00 in0.0 mm
10:15 AM 35.4°F1.9°C 23.0°F-5.0°C 60% 9.0 mph NE14.5 kmh NE 9.0 mph14.5 kmh 29.61 in1002.7 mb 0.00 in0.0 mm 0.00 in0.0 mm 0.00 in0.0 mm
10:20 AM 35.6°F2.0°C 23.2°F-4.9°C 60% 4.0 mph N6.4 kmh N -- 29.61 in1002.7 mb 0.00 in0.0 mm 0.00 in0.0 mm 0.00 in0.0 mm
10:25 AM 35.8°F2.1°C 23.4°F-4.8°C 60% 3.0 mph NE4.8 kmh NE -- 29.61 in1002.7 mb 0.00 in0.0 mm 0.00 in0.0 mm 0.00 in0.0 mm
10:30 AM 36.4°F2.4°C 23.7°F-4.6°C 60% 2.0 mph NNE3.2 kmh NNE -- 29.60 in1002.4 mb 0.00 in0.0 mm 0.00 in0.0 mm 0.00 in0.0 mm
10:35 AM 36.0°F2.2°C 22.6°F-5.2°C 58% 4.0 mph N6.4 kmh N -- 29.60 in1002.4 mb 0.00 in0.0 mm 0.00 in0.0 mm 0.00 in0.0 mm
10:40 AM 36.5°F2.5°C 22.8°F-5.1°C 57% 7.0 mph NE11.3 kmh NE 15.0 mph24.1 kmh 29.60 in1002.4 mb 0.00 in0.0 mm 0.00 in0.0 mm 0.00 in0.0 mm
10:45 AM 36.5°F2.5°C 22.8°F-5.1°C 57% 2.0 mph NW3.2 kmh NW -- 29.60 in1002.4 mb 0.00 in0.0 mm 0.00 in0.0 mm 0.00 in0.0 mm
10:50 AM 36.5°F2.5°C 22.8°F-5.1°C 57% 1.0 mph NE1.6 kmh NE -- 29.60 in1002.4 mb 0.00 in0.0 mm 0.00 in0.0 mm 0.00 in0.0 mm
10:55 AM 36.2°F2.3°C 22.8°F-5.1°C 58% 8.0 mph NE12.9 kmh NE -- 29.60 in1002.4 mb 0.00 in0.0 mm 0.00 in0.0 mm 0.00 in0.0 mm
11:00 AM 36.2°F2.3°C 23.2°F-4.9°C 59% 8.0 mph N12.9 kmh N -- 29.60 in1002.4 mb 0.00 in0.0 mm 0.00 in0.0 mm 0.00 in0.0 mm
11:05 AM 36.1°F2.3°C 23.2°F-4.9°C 59% 7.0 mph N11.3 kmh N 14.0 mph22.5 kmh 29.60 in1002.4 mb 0.00 in0.0 mm 0.00 in0.0 mm 0.00 in0.0 mm
11:10 AM 36.3°F2.4°C 23.0°F-5.0°C 58% 5.0 mph N8.0 kmh N -- 29.60 in1002.4 mb 0.00 in0.0 mm 0.00 in0.0 mm 0.00 in0.0 mm
11:15 AM 36.1°F2.3°C 23.2°F-4.9°C 59% 5.0 mph N8.0 kmh N -- 29.60 in1002.4 mb 0.00 in0.0 mm 0.00 in0.0 mm 0.00 in0.0 mm
11:20 AM 35.9°F2.2°C 23.9°F-4.5°C 61% 5.0 mph WNW8.0 kmh WNW -- 29.60 in1002.4 mb 0.00 in0.0 mm 0.00 in0.0 mm 0.00 in0.0 mm
11:25 AM 36.4°F2.4°C 24.6°F-4.1°C 62% 6.0 mph NNE9.7 kmh NNE -- 29.60 in1002.4 mb 0.00 in0.0 mm 0.00 in0.0 mm 0.00 in0.0 mm
11:30 AM 36.3°F2.4°C 24.6°F-4.1°C 62% 9.0 mph NNE14.5 kmh NNE 11.0 mph17.7 kmh 29.60 in1002.4 mb 0.00 in0.0 mm 0.00 in0.0 mm 0.00 in0.0 mm
11:35 AM 36.4°F2.4°C 24.3°F-4.3°C 61% 5.0 mph N8.0 kmh N -- 29.60 in1002.4 mb 0.00 in0.0 mm 0.00 in0.0 mm 0.00 in0.0 mm
11:40 AM 36.5°F2.5°C 24.3°F-4.3°C 61% 7.0 mph N11.3 kmh N -- 29.60 in1002.4 mb 0.00 in0.0 mm 0.00 in0.0 mm 0.00 in0.0 mm
11:45 AM 36.2°F2.3°C 24.8°F-4.0°C 63% 3.0 mph WNW4.8 kmh WNW -- 29.59 in1002.0 mb 0.00 in0.0 mm 0.00 in0.0 mm 0.00 in0.0 mm
11:50 AM 36.0°F2.2°C 24.6°F-4.1°C 63% 3.0 mph N4.8 kmh N -- 29.59 in1002.0 mb 0.00 in0.0 mm 0.00 in0.0 mm 0.00 in0.0 mm
11:55 AM 36.2°F2.3°C 24.4°F-4.2°C 62% 2.0 mph ENE3.2 kmh ENE 12.0 mph19.3 kmh 29.59 in1002.0 mb 0.00 in0.0 mm 0.00 in0.0 mm 0.00 in0.0 mm
12:00 PM 36.6°F2.6°C 24.1°F-4.4°C 60% 7.0 mph NE11.3 kmh NE -- 29.59 in1002.0 mb 0.00 in0.0 mm 0.00 in0.0 mm 0.00 in0.0 mm
12:05 PM 36.6°F2.6°C 24.1°F-4.4°C 60% 5.0 mph NE8.0 kmh NE -- 29.59 in1002.0 mb 0.00 in0.0 mm 0.00 in0.0 mm 0.00 in0.0 mm
12:10 PM 36.9°F2.7°C 23.9°F-4.5°C 59% 9.0 mph NNE14.5 kmh NNE -- 29.59 in1002.0 mb 0.00 in0.0 mm 0.00 in0.0 mm 0.00 in0.0 mm
12:15 PM 36.8°F2.7°C 24.3°F-4.3°C 60% 1.0 mph NNE1.6 kmh NNE -- 29.59 in1002.0 mb 0.00 in0.0 mm 0.00 in0.0 mm 0.00 in0.0 mm
12:20 PM 36.9°F2.7°C 25.2°F-3.8°C 62% 6.0 mph NW9.7 kmh NW 10.0 mph16.1 kmh 29.59 in1002.0 mb 0.00 in0.0 mm 0.00 in0.0 mm 0.00 in0.0 mm
12:25 PM 36.7°F2.6°C 25.0°F-3.9°C 62% 3.0 mph NE4.8 kmh NE -- 29.59 in1002.0 mb 0.00 in0.0 mm 0.00 in0.0 mm 0.00 in0.0 mm
12:30 PM 36.6°F2.6°C 25.3°F-3.7°C 63% 7.0 mph N11.3 kmh N -- 29.59 in1002.0 mb 0.00 in0.0 mm 0.00 in0.0 mm 0.00 in0.0 mm
12:35 PM 36.6°F2.6°C 25.7°F-3.5°C 64% 3.0 mph NE4.8 kmh NE -- 29.59 in1002.0 mb 0.00 in0.0 mm 0.00 in0.0 mm 0.00 in0.0 mm
12:40 PM 36.8°F2.7°C 26.2°F-3.2°C 65% 7.0 mph NNW11.3 kmh NNW -- 29.59 in1002.0 mb 0.00 in0.0 mm 0.00 in0.0 mm 0.00 in0.0 mm
12:45 PM 36.7°F2.6°C 26.1°F-3.3°C 65% 2.0 mph N3.2 kmh N 9.0 mph14.5 kmh 29.58 in1001.7 mb 0.00 in0.0 mm 0.00 in0.0 mm 0.00 in0.0 mm
12:50 PM 36.8°F2.7°C 26.2°F-3.2°C 65% 2.0 mph NNW3.2 kmh NNW -- 29.58 in1001.7 mb 0.00 in0.0 mm 0.00 in0.0 mm 0.00 in0.0 mm
12:55 PM 36.9°F2.7°C 26.2°F-3.2°C 65% 5.0 mph WSW8.0 kmh WSW -- 29.58 in1001.7 mb 0.00 in0.0 mm 0.00 in0.0 mm 0.00 in0.0 mm
01:00 PM 37.0°F2.8°C 26.1°F-3.3°C 64% 6.0 mph NNW9.7 kmh NNW -- 29.58 in1001.7 mb 0.00 in0.0 mm 0.00 in0.0 mm 0.00 in0.0 mm
01:05 PM 36.9°F2.7°C 25.9°F-3.4°C 64% 3.0 mph NW4.8 kmh NW -- 29.58 in1001.7 mb 0.00 in0.0 mm 0.00 in0.0 mm 0.00 in0.0 mm
01:10 PM 36.8°F2.7°C 26.2°F-3.2°C 65% 3.0 mph NNW4.8 kmh NNW 11.0 mph17.7 kmh 29.57 in1001.4 mb 0.00 in0.0 mm 0.00 in0.0 mm 0.00 in0.0 mm
01:15 PM 37.1°F2.8°C 26.1°F-3.3°C 64% 2.0 mph NNW3.2 kmh NNW -- 29.57 in1001.4 mb 0.00 in0.0 mm 0.00 in0.0 mm 0.00 in0.0 mm
01:20 PM 37.2°F2.9°C 25.9°F-3.4°C 63% 1.0 mph WSW1.6 kmh WSW -- 29.57 in1001.4 mb 0.00 in0.0 mm 0.00 in0.0 mm 0.00 in0.0 mm
01:25 PM 37.3°F2.9°C 25.9°F-3.4°C 63% 2.0 mph NE3.2 kmh NE -- 29.57 in1001.4 mb 0.00 in0.0 mm 0.00 in0.0 mm 0.00 in0.0 mm
01:30 PM 37.3°F2.9°C 26.2°F-3.2°C 64% 8.0 mph NNE12.9 kmh NNE -- 29.57 in1001.4 mb 0.00 in0.0 mm 0.00 in0.0 mm 0.00 in0.0 mm
01:35 PM 37.2°F2.9°C 26.6°F-3.0°C 65% 5.0 mph E8.0 kmh E 12.0 mph19.3 kmh 29.57 in1001.4 mb 0.00 in0.0 mm 0.00 in0.0 mm 0.00 in0.0 mm
01:40 PM 37.1°F2.8°C 26.4°F-3.1°C 65% 5.0 mph N8.0 kmh N -- 29.57 in1001.4 mb 0.00 in0.0 mm 0.00 in0.0 mm 0.00 in0.0 mm
01:45 PM 37.1°F2.8°C 26.8°F-2.9°C 66% 3.0 mph W4.8 kmh W -- 29.57 in1001.4 mb 0.00 in0.0 mm 0.00 in0.0 mm 0.00 in0.0 mm
01:50 PM 37.4°F3.0°C 26.8°F-2.9°C 65% 4.0 mph NW6.4 kmh NW -- 29.57 in1001.4 mb 0.00 in0.0 mm 0.00 in0.0 mm 0.00 in0.0 mm
01:55 PM 37.7°F3.2°C 27.1°F-2.7°C 65% 5.0 mph NNW8.0 kmh NNW -- 29.56 in1001.0 mb 0.00 in0.0 mm 0.00 in0.0 mm 0.00 in0.0 mm
02:00 PM 37.5°F3.1°C 26.1°F-3.3°C 63% 5.0 mph N8.0 kmh N 10.0 mph16.1 kmh 29.56 in1001.0 mb 0.00 in0.0 mm 0.00 in0.0 mm 0.00 in0.0 mm
02:05 PM 36.9°F2.7°C 26.6°F-3.0°C 66% Calm Calm -- 29.56 in1001.0 mb 0.00 in0.0 mm 0.00 in0.0 mm 0.00 in0.0 mm
02:10 PM 37.2°F2.9°C 27.0°F-2.8°C 66% 8.0 mph WSW12.9 kmh WSW -- 29.56 in1001.0 mb 0.00 in0.0 mm 0.00 in0.0 mm 0.00 in0.0 mm
02:15 PM 37.0°F2.8°C 27.1°F-2.7°C 67% 4.0 mph W6.4 kmh W -- 29.56 in1001.0 mb 0.00 in0.0 mm 0.00 in0.0 mm 0.00 in0.0 mm
02:20 PM 36.8°F2.7°C 27.3°F-2.6°C 68% 5.0 mph W8.0 kmh W -- 29.56 in1001.0 mb 0.00 in0.0 mm 0.00 in0.0 mm 0.00 in0.0 mm
02:25 PM 36.4°F2.4°C 27.5°F-2.5°C 70% 6.0 mph W9.7 kmh W 11.0 mph17.7 kmh 29.56 in1001.0 mb 0.00 in0.0 mm 0.00 in0.0 mm 0.00 in0.0 mm
02:30 PM 36.1°F2.3°C 27.7°F-2.4°C 71% 4.0 mph WNW6.4 kmh WNW -- 29.56 in1001.0 mb 0.00 in0.0 mm 0.00 in0.0 mm 0.00 in0.0 mm
02:35 PM 36.0°F2.2°C 28.2°F-2.1°C 73% 7.0 mph W11.3 kmh W -- 29.55 in1000.7 mb 0.00 in0.0 mm 0.00 in0.0 mm 0.00 in0.0 mm
02:40 PM 35.9°F2.2°C 28.6°F-1.9°C 74% 3.0 mph NE4.8 kmh NE -- 29.55 in1000.7 mb 0.00 in0.0 mm 0.00 in0.0 mm 0.00 in0.0 mm
02:45 PM 36.1°F2.3°C 28.9°F-1.7°C 75% 1.0 mph ENE1.6 kmh ENE -- 29.55 in1000.7 mb 0.00 in0.0 mm 0.00 in0.0 mm 0.00 in0.0 mm
02:50 PM 36.2°F2.3°C 28.9°F-1.7°C 75% 4.0 mph NE6.4 kmh NE 11.0 mph17.7 kmh 29.55 in1000.7 mb 0.00 in0.0 mm 0.00 in0.0 mm 0.00 in0.0 mm
02:55 PM 36.4°F2.4°C 29.5°F-1.4°C 76% 6.0 mph WNW9.7 kmh WNW -- 29.55 in1000.7 mb 0.00 in0.0 mm 0.00 in0.0 mm 0.00 in0.0 mm
03:00 PM 36.3°F2.4°C 29.5°F-1.4°C 76% 3.0 mph NW4.8 kmh NW -- 29.54 in1000.3 mb 0.00 in0.0 mm 0.00 in0.0 mm 0.00 in0.0 mm
03:05 PM 36.5°F2.5°C 29.7°F-1.3°C 76% 1.0 mph W1.6 kmh W -- 29.54 in1000.3 mb 0.00 in0.0 mm 0.00 in0.0 mm 0.00 in0.0 mm
03:10 PM 36.5°F2.5°C 29.3°F-1.5°C 75% Calm Calm -- 29.54 in1000.3 mb 0.00 in0.0 mm 0.00 in0.0 mm 0.00 in0.0 mm
03:15 PM 36.4°F2.4°C 29.1°F-1.6°C 75% 7.0 mph W11.3 kmh W 7.0 mph11.3 kmh 29.53 in1000.0 mb 0.00 in0.0 mm 0.00 in0.0 mm 0.00 in0.0 mm
03:20 PM 36.2°F2.3°C 28.6°F-1.9°C 74% 4.0 mph S6.4 kmh S -- 29.53 in1000.0 mb 0.00 in0.0 mm 0.00 in0.0 mm 0.00 in0.0 mm
03:25 PM 36.3°F2.4°C 29.1°F-1.6°C 75% 2.0 mph NW3.2 kmh NW -- 29.53 in1000.0 mb 0.00 in0.0 mm 0.00 in0.0 mm 0.00 in0.0 mm
03:30 PM 36.4°F2.4°C 29.1°F-1.6°C 75% 4.0 mph SSW6.4 kmh SSW -- 29.53 in1000.0 mb 0.00 in0.0 mm 0.00 in0.0 mm 0.00 in0.0 mm
03:35 PM 36.5°F2.5°C 29.3°F-1.5°C 75% 2.0 mph SW3.2 kmh SW -- 29.52 in999.7 mb 0.00 in0.0 mm 0.00 in0.0 mm 0.00 in0.0 mm
03:40 PM 36.5°F2.5°C 29.3°F-1.5°C 75% 6.0 mph SW9.7 kmh SW 11.0 mph17.7 kmh 29.52 in999.7 mb 0.00 in0.0 mm 0.00 in0.0 mm 0.00 in0.0 mm
03:45 PM 36.3°F2.4°C 29.5°F-1.4°C 76% 3.0 mph WSW4.8 kmh WSW -- 29.52 in999.7 mb 0.00 in0.0 mm 0.00 in0.0 mm 0.00 in0.0 mm
03:50 PM 36.2°F2.3°C 29.7°F-1.3°C 77% 5.0 mph WNW8.0 kmh WNW -- 29.52 in999.7 mb 0.00 in0.0 mm 0.00 in0.0 mm 0.00 in0.0 mm
03:55 PM 35.9°F2.2°C 29.8°F-1.2°C 78% 3.0 mph N4.8 kmh N -- 29.52 in999.7 mb 0.00 in0.0 mm 0.00 in0.0 mm 0.00 in0.0 mm
04:00 PM 35.6°F2.0°C 29.7°F-1.3°C 79% 2.0 mph WNW3.2 kmh WNW -- 29.52 in999.7 mb 0.00 in0.0 mm 0.00 in0.0 mm 0.00 in0.0 mm
04:05 PM 35.3°F1.8°C 29.7°F-1.3°C 80% Calm Calm 8.0 mph12.9 kmh 29.52 in999.7 mb 0.00 in0.0 mm 0.00 in0.0 mm 0.00 in0.0 mm
04:10 PM 35.5°F1.9°C 30.2°F-1.0°C 81% Calm Calm -- 29.52 in999.7 mb 0.00 in0.0 mm 0.00 in0.0 mm 0.00 in0.0 mm
04:15 PM 35.6°F2.0°C 30.7°F-0.7°C 82% 2.0 mph NNE3.2 kmh NNE -- 29.52 in999.7 mb 0.00 in0.0 mm 0.00 in0.0 mm 0.00 in0.0 mm
04:20 PM 35.6°F2.0°C 30.7°F-0.7°C 82% Calm Calm -- 29.52 in999.7 mb 0.00 in0.0 mm 0.00 in0.0 mm 0.00 in0.0 mm
04:25 PM 35.5°F1.9°C 30.6°F-0.8°C 82% 2.0 mph NE3.2 kmh NE -- 29.52 in999.7 mb 0.00 in0.0 mm 0.00 in0.0 mm 0.00 in0.0 mm
04:30 PM 34.8°F1.6°C 30.9°F-0.6°C 85% 2.0 mph NE3.2 kmh NE 6.0 mph9.7 kmh 29.52 in999.7 mb 0.00 in0.0 mm 0.00 in0.0 mm 0.00 in0.0 mm
04:35 PM 34.4°F1.3°C 30.6°F-0.8°C 86% 2.0 mph NE3.2 kmh NE -- 29.52 in999.7 mb 0.00 in0.0 mm 0.00 in0.0 mm 0.00 in0.0 mm
04:40 PM 34.2°F1.2°C 30.9°F-0.6°C 88% 2.0 mph NE3.2 kmh NE -- 29.52 in999.7 mb 0.00 in0.0 mm 0.00 in0.0 mm 0.00 in0.0 mm
04:45 PM 34.0°F1.1°C 31.1°F-0.5°C 89% Calm Calm -- 29.53 in1000.0 mb 0.00 in0.0 mm 0.00 in0.0 mm 0.00 in0.0 mm
04:50 PM 33.9°F1.1°C 31.1°F-0.5°C 89% 1.0 mph NE1.6 kmh NE -- 29.52 in999.7 mb 0.00 in0.0 mm 0.00 in0.0 mm 0.00 in0.0 mm
04:55 PM 34.0°F1.1°C 31.3°F-0.4°C 90% Calm Calm 3.0 mph4.8 kmh 29.52 in999.7 mb 0.00 in0.0 mm 0.00 in0.0 mm 0.00 in0.0 mm
05:00 PM 34.1°F1.2°C 31.5°F-0.3°C 90% 5.0 mph NE8.0 kmh NE -- 29.52 in999.7 mb 0.00 in0.0 mm 0.00 in0.0 mm 0.00 in0.0 mm
05:05 PM 34.0°F1.1°C 31.6°F-0.2°C 91% 4.0 mph NE6.4 kmh NE -- 29.52 in999.7 mb 0.00 in0.0 mm 0.00 in0.0 mm 0.00 in0.0 mm
05:10 PM 33.9°F1.1°C 31.6°F-0.2°C 91% Calm Calm -- 29.52 in999.7 mb 0.00 in0.0 mm 0.00 in0.0 mm 0.00 in0.0 mm
05:15 PM 34.0°F1.1°C 31.6°F-0.2°C 91% Calm Calm -- 29.52 in999.7 mb 0.00 in0.0 mm 0.00 in0.0 mm 0.00 in0.0 mm
05:20 PM 34.2°F1.2°C 31.8°F-0.1°C 91% Calm Calm 1.0 mph1.6 kmh 29.52 in999.7 mb 0.01 in0.3 mm 0.12 in3.0 mm 0.01 in0.3 mm
05:25 PM 34.4°F1.3°C 32.0°F0.0°C 91% Calm Calm -- 29.52 in999.7 mb 0.01 in0.3 mm 0.00 in0.0 mm 0.01 in0.3 mm
05:30 PM 34.5°F1.4°C 32.2°F0.1°C 91% Calm Calm -- 29.51 in999.3 mb 0.02 in0.5 mm 0.12 in3.0 mm 0.02 in0.5 mm
05:35 PM 34.7°F1.5°C 32.4°F0.2°C 91% 2.0 mph NE3.2 kmh NE -- 29.52 in999.7 mb 0.02 in0.5 mm 0.00 in0.0 mm 0.02 in0.5 mm
05:40 PM 34.8°F1.6°C 32.2°F0.1°C 90% 1.0 mph W1.6 kmh W -- 29.52 in999.7 mb 0.02 in0.5 mm 0.00 in0.0 mm 0.02 in0.5 mm
05:45 PM 35.0°F1.7°C 32.4°F0.2°C 90% Calm Calm 6.0 mph9.7 kmh 29.52 in999.7 mb 0.02 in0.5 mm 0.00 in0.0 mm 0.02 in0.5 mm
05:50 PM 35.0°F1.7°C 32.2°F0.1°C 89% Calm Calm -- 29.52 in999.7 mb 0.02 in0.5 mm 0.00 in0.0 mm 0.02 in0.5 mm
05:55 PM 34.8°F1.6°C 31.6°F-0.2°C 88% 3.0 mph W4.8 kmh W -- 29.52 in999.7 mb 0.02 in0.5 mm 0.00 in0.0 mm 0.02 in0.5 mm
06:00 PM 34.8°F1.6°C 32.0°F0.0°C 89% Calm Calm -- 29.51 in999.3 mb 0.02 in0.5 mm 0.00 in0.0 mm 0.02 in0.5 mm
06:05 PM 34.9°F1.6°C 32.0°F0.0°C 89% 1.0 mph NW1.6 kmh NW -- 29.51 in999.3 mb 0.02 in0.5 mm 0.00 in0.0 mm 0.02 in0.5 mm
06:10 PM 35.2°F1.8°C 32.4°F0.2°C 89% 2.0 mph NW3.2 kmh NW 4.0 mph6.4 kmh 29.51 in999.3 mb 0.02 in0.5 mm 0.00 in0.0 mm 0.02 in0.5 mm
06:15 PM 35.2°F1.8°C 32.4°F0.2°C 89% 1.0 mph WNW1.6 kmh WNW -- 29.51 in999.3 mb 0.02 in0.5 mm 0.00 in0.0 mm 0.02 in0.5 mm
06:20 PM 35.2°F1.8°C 32.4°F0.2°C 89% 1.0 mph SSW1.6 kmh SSW -- 29.51 in999.3 mb 0.02 in0.5 mm 0.00 in0.0 mm 0.03 in0.8 mm
06:25 PM 35.3°F1.8°C 32.0°F0.0°C 88% 1.0 mph SW1.6 kmh SW -- 29.51 in999.3 mb 0.02 in0.5 mm 0.00 in0.0 mm 0.03 in0.8 mm
06:30 PM 35.0°F1.7°C 31.6°F-0.2°C 87% 4.0 mph N6.4 kmh N -- 29.52 in999.7 mb 0.02 in0.5 mm 0.00 in0.0 mm 0.03 in0.8 mm
06:35 PM 34.3°F1.3°C 31.1°F-0.5°C 88% 3.0 mph NE4.8 kmh NE 8.0 mph12.9 kmh 29.52 in999.7 mb 0.02 in0.5 mm 0.00 in0.0 mm 0.03 in0.8 mm
06:40 PM 33.8°F1.0°C 31.1°F-0.5°C 90% 2.0 mph NE3.2 kmh NE -- 29.52 in999.7 mb 0.02 in0.5 mm 0.00 in0.0 mm 0.03 in0.8 mm
06:45 PM 33.5°F0.8°C 31.1°F-0.5°C 91% 1.0 mph NE1.6 kmh NE -- 29.52 in999.7 mb 0.01 in0.3 mm 0.00 in0.0 mm 0.03 in0.8 mm
06:50 PM 33.5°F0.8°C 31.1°F-0.5°C 91% 1.0 mph N1.6 kmh N -- 29.52 in999.7 mb 0.01 in0.3 mm 0.00 in0.0 mm 0.03 in0.8 mm
06:55 PM 33.3°F0.7°C 30.9°F-0.6°C 91% 4.0 mph NW6.4 kmh NW -- 29.52 in999.7 mb 0.01 in0.3 mm 0.00 in0.0 mm 0.03 in0.8 mm
07:00 PM 33.2°F0.7°C 30.9°F-0.6°C 91% 1.0 mph N1.6 kmh N 6.0 mph9.7 kmh 29.52 in999.7 mb 0.01 in0.3 mm 0.00 in0.0 mm 0.03 in0.8 mm
07:05 PM 33.2°F0.7°C 30.9°F-0.6°C 91% 2.0 mph NW3.2 kmh NW -- 29.52 in999.7 mb 0.01 in0.3 mm 0.00 in0.0 mm 0.03 in0.8 mm
07:10 PM 33.4°F0.8°C 30.7°F-0.7°C 90% 3.0 mph WNW4.8 kmh WNW -- 29.52 in999.7 mb 0.02 in0.5 mm 0.12 in3.0 mm 0.04 in1.0 mm
07:15 PM 33.7°F0.9°C 30.4°F-0.9°C 88% 1.0 mph NW1.6 kmh NW -- 29.52 in999.7 mb 0.02 in0.5 mm 0.00 in0.0 mm 0.04 in1.0 mm
07:20 PM 33.9°F1.1°C 30.6°F-0.8°C 87% 4.0 mph WNW6.4 kmh WNW -- 29.52 in999.7 mb 0.01 in0.3 mm 0.00 in0.0 mm 0.04 in1.0 mm
07:25 PM 34.3°F1.3°C 30.4°F-0.9°C 85% 1.0 mph NE1.6 kmh NE 8.0 mph12.9 kmh 29.52 in999.7 mb 0.01 in0.3 mm 0.00 in0.0 mm 0.04 in1.0 mm
07:30 PM 34.4°F1.3°C 30.0°F-1.1°C 84% 1.0 mph N1.6 kmh N -- 29.51 in999.3 mb 0.01 in0.3 mm 0.00 in0.0 mm 0.04 in1.0 mm
07:35 PM 34.7°F1.5°C 29.8°F-1.2°C 82% 1.0 mph N1.6 kmh N -- 29.51 in999.3 mb 0.01 in0.3 mm 0.00 in0.0 mm 0.04 in1.0 mm
07:40 PM 34.7°F1.5°C 29.5°F-1.4°C 81% 5.0 mph NNE8.0 kmh NNE -- 29.51 in999.3 mb 0.01 in0.3 mm 0.00 in0.0 mm 0.04 in1.0 mm
07:45 PM 34.8°F1.6°C 29.1°F-1.6°C 79% 6.0 mph N9.7 kmh N -- 29.51 in999.3 mb 0.01 in0.3 mm 0.00 in0.0 mm 0.04 in1.0 mm
07:50 PM 35.0°F1.7°C 28.9°F-1.7°C 78% 7.0 mph NNW11.3 kmh NNW 8.0 mph12.9 kmh 29.51 in999.3 mb 0.01 in0.3 mm 0.00 in0.0 mm 0.04 in1.0 mm
07:55 PM 35.0°F1.7°C 28.6°F-1.9°C 77% 7.0 mph NW11.3 kmh NW -- 29.51 in999.3 mb 0.01 in0.3 mm 0.00 in0.0 mm 0.04 in1.0 mm
08:00 PM 34.9°F1.6°C 28.4°F-2.0°C 77% 1.0 mph N1.6 kmh N -- 29.51 in999.3 mb 0.01 in0.3 mm 0.00 in0.0 mm 0.04 in1.0 mm
08:05 PM 34.3°F1.3°C 28.8°F-1.8°C 80% 10.0 mph NNE16.1 kmh NNE -- 29.51 in999.3 mb 0.01 in0.3 mm 0.00 in0.0 mm 0.04 in1.0 mm
08:10 PM 33.9°F1.1°C 29.1°F-1.6°C 82% 1.0 mph NW1.6 kmh NW -- 29.51 in999.3 mb 0.00 in0.0 mm 0.00 in0.0 mm 0.04 in1.0 mm
08:15 PM 33.9°F1.1°C 29.3°F-1.5°C 83% 1.0 mph NW1.6 kmh NW 12.0 mph19.3 kmh 29.51 in999.3 mb 0.00 in0.0 mm 0.00 in0.0 mm 0.04 in1.0 mm
08:20 PM 33.8°F1.0°C 29.1°F-1.6°C 83% 1.0 mph W1.6 kmh W -- 29.50 in999.0 mb 0.00 in0.0 mm 0.00 in0.0 mm 0.04 in1.0 mm
08:25 PM 33.7°F0.9°C 28.9°F-1.7°C 83% 4.0 mph SE6.4 kmh SE -- 29.51 in999.3 mb 0.00 in0.0 mm 0.00 in0.0 mm 0.04 in1.0 mm
08:30 PM 33.8°F1.0°C 28.9°F-1.7°C 82% 3.0 mph W4.8 kmh W -- 29.51 in999.3 mb 0.00 in0.0 mm 0.00 in0.0 mm 0.04 in1.0 mm
08:35 PM 33.9°F1.1°C 28.4°F-2.0°C 80% 4.0 mph WNW6.4 kmh WNW -- 29.50 in999.0 mb 0.00 in0.0 mm 0.00 in0.0 mm 0.04 in1.0 mm
08:40 PM 34.1°F1.2°C 28.4°F-2.0°C 79% 7.0 mph N11.3 kmh N 9.0 mph14.5 kmh 29.51 in999.3 mb 0.00 in0.0 mm 0.00 in0.0 mm 0.04 in1.0 mm
08:45 PM 34.1°F1.2°C 28.4°F-2.0°C 79% 4.0 mph W6.4 kmh W -- 29.51 in999.3 mb 0.00 in0.0 mm 0.00 in0.0 mm 0.04 in1.0 mm
08:50 PM 33.4°F0.8°C 28.2°F-2.1°C 81% 3.0 mph NW4.8 kmh NW -- 29.52 in999.7 mb 0.00 in0.0 mm 0.00 in0.0 mm 0.04 in1.0 mm
08:55 PM 33.0°F0.6°C 28.2°F-2.1°C 82% 3.0 mph W4.8 kmh W -- 29.51 in999.3 mb 0.00 in0.0 mm 0.00 in0.0 mm 0.04 in1.0 mm
09:00 PM 32.8°F0.4°C 27.9°F-2.3°C 82% 1.0 mph NE1.6 kmh NE -- 29.51 in999.3 mb 0.00 in0.0 mm 0.00 in0.0 mm 0.04 in1.0 mm
09:05 PM 32.8°F0.4°C 27.5°F-2.5°C 81% Calm Calm 9.0 mph14.5 kmh 29.51 in999.3 mb 0.00 in0.0 mm 0.00 in0.0 mm 0.04 in1.0 mm
09:10 PM 32.9°F0.5°C 27.7°F-2.4°C 81% 2.0 mph SW3.2 kmh SW -- 29.51 in999.3 mb 0.00 in0.0 mm 0.00 in0.0 mm 0.04 in1.0 mm
09:15 PM 33.0°F0.6°C 27.7°F-2.4°C 80% 4.0 mph WSW6.4 kmh WSW -- 29.50 in999.0 mb 0.00 in0.0 mm 0.00 in0.0 mm 0.04 in1.0 mm
09:20 PM 33.3°F0.7°C 27.5°F-2.5°C 79% 2.0 mph W3.2 kmh W -- 29.50 in999.0 mb 0.00 in0.0 mm 0.00 in0.0 mm 0.04 in1.0 mm
09:25 PM 33.4°F0.8°C 27.7°F-2.4°C 79% Calm Calm -- 29.50 in999.0 mb 0.00 in0.0 mm 0.00 in0.0 mm 0.04 in1.0 mm
09:30 PM 33.4°F0.8°C 27.7°F-2.4°C 79% 5.0 mph WNW8.0 kmh WNW 6.0 mph9.7 kmh 29.50 in999.0 mb 0.00 in0.0 mm 0.00 in0.0 mm 0.04 in1.0 mm
09:35 PM 33.9°F1.1°C 27.1°F-2.7°C 76% 1.0 mph NNE1.6 kmh NNE -- 29.50 in999.0 mb 0.00 in0.0 mm 0.00 in0.0 mm 0.04 in1.0 mm
09:40 PM 34.2°F1.2°C 27.3°F-2.6°C 76% 9.0 mph N14.5 kmh N -- 29.51 in999.3 mb 0.00 in0.0 mm 0.00 in0.0 mm 0.04 in1.0 mm
09:45 PM 34.4°F1.3°C 27.0°F-2.8°C 74% 1.0 mph NE1.6 kmh NE -- 29.51 in999.3 mb 0.00 in0.0 mm 0.00 in0.0 mm 0.04 in1.0 mm
09:50 PM 34.4°F1.3°C 26.2°F-3.2°C 72% 6.0 mph NNW9.7 kmh NNW -- 29.51 in999.3 mb 0.00 in0.0 mm 0.00 in0.0 mm 0.04 in1.0 mm
09:55 PM 34.4°F1.3°C 25.9°F-3.4°C 71% 6.0 mph N9.7 kmh N 14.0 mph22.5 kmh 29.51 in999.3 mb 0.00 in0.0 mm 0.00 in0.0 mm 0.04 in1.0 mm
10:00 PM 34.4°F1.3°C 25.5°F-3.6°C 70% 3.0 mph NNW4.8 kmh NNW -- 29.51 in999.3 mb 0.00 in0.0 mm 0.00 in0.0 mm 0.04 in1.0 mm
10:05 PM 34.4°F1.3°C 25.5°F-3.6°C 70% 3.0 mph WNW4.8 kmh WNW -- 29.51 in999.3 mb 0.00 in0.0 mm 0.00 in0.0 mm 0.04 in1.0 mm
10:10 PM 34.4°F1.3°C 25.5°F-3.6°C 70% 3.0 mph NNE4.8 kmh NNE -- 29.50 in999.0 mb 0.00 in0.0 mm 0.00 in0.0 mm 0.04 in1.0 mm
10:15 PM 34.4°F1.3°C 25.5°F-3.6°C 70% 3.0 mph ENE4.8 kmh ENE -- 29.50 in999.0 mb 0.00 in0.0 mm 0.00 in0.0 mm 0.04 in1.0 mm
10:20 PM 34.4°F1.3°C 25.5°F-3.6°C 70% 3.0 mph NNE4.8 kmh NNE 12.0 mph19.3 kmh 29.50 in999.0 mb 0.00 in0.0 mm 0.00 in0.0 mm 0.04 in1.0 mm
10:25 PM 34.3°F1.3°C 25.5°F-3.6°C 70% 5.0 mph WNW8.0 kmh WNW -- 29.50 in999.0 mb 0.00 in0.0 mm 0.00 in0.0 mm 0.04 in1.0 mm
10:30 PM 34.2°F1.2°C 25.3°F-3.7°C 70% 7.0 mph NE11.3 kmh NE -- 29.50 in999.0 mb 0.00 in0.0 mm 0.00 in0.0 mm 0.04 in1.0 mm
10:35 PM 34.2°F1.2°C 25.3°F-3.7°C 70% 1.0 mph NE1.6 kmh NE -- 29.50 in999.0 mb 0.00 in0.0 mm 0.00 in0.0 mm 0.04 in1.0 mm
10:40 PM 34.1°F1.2°C 25.0°F-3.9°C 69% 3.0 mph WNW4.8 kmh WNW -- 29.50 in999.0 mb 0.00 in0.0 mm 0.00 in0.0 mm 0.04 in1.0 mm
10:45 PM 34.2°F1.2°C 25.3°F-3.7°C 70% 2.0 mph WNW3.2 kmh WNW 8.0 mph12.9 kmh 29.49 in998.6 mb 0.00 in0.0 mm 0.00 in0.0 mm 0.04 in1.0 mm
10:50 PM 34.0°F1.1°C 25.5°F-3.6°C 71% 1.0 mph W1.6 kmh W -- 29.50 in999.0 mb 0.00 in0.0 mm 0.00 in0.0 mm 0.04 in1.0 mm
10:55 PM 33.7°F0.9°C 26.2°F-3.2°C 74% 6.0 mph WNW9.7 kmh WNW -- 29.50 in999.0 mb 0.00 in0.0 mm 0.00 in0.0 mm 0.04 in1.0 mm
11:00 PM 33.4°F0.8°C 26.8°F-2.9°C 76% 1.0 mph SW1.6 kmh SW -- 29.49 in998.6 mb 0.00 in0.0 mm 0.00 in0.0 mm 0.03 in0.8 mm
11:05 PM 33.2°F0.7°C 26.6°F-3.0°C 76% 2.0 mph WSW3.2 kmh WSW -- 29.49 in998.6 mb 0.00 in0.0 mm 0.00 in0.0 mm 0.03 in0.8 mm
11:10 PM 33.2°F0.7°C 26.8°F-2.9°C 77% 3.0 mph NW4.8 kmh NW 6.0 mph9.7 kmh 29.49 in998.6 mb 0.00 in0.0 mm 0.00 in0.0 mm 0.03 in0.8 mm
11:15 PM 33.4°F0.8°C 27.0°F-2.8°C 77% Calm Calm -- 29.49 in998.6 mb 0.00 in0.0 mm 0.00 in0.0 mm 0.03 in0.8 mm
11:20 PM 33.4°F0.8°C 27.0°F-2.8°C 77% 3.0 mph NE4.8 kmh NE -- 29.49 in998.6 mb 0.00 in0.0 mm 0.00 in0.0 mm 0.03 in0.8 mm
11:25 PM 33.1°F0.6°C 27.9°F-2.3°C 81% 11.0 mph NE17.7 kmh NE -- 29.50 in999.0 mb 0.00 in0.0 mm 0.00 in0.0 mm 0.03 in0.8 mm
11:30 PM 32.1°F0.1°C 28.2°F-2.1°C 85% 9.0 mph NE14.5 kmh NE -- 29.50 in999.0 mb 0.00 in0.0 mm 0.00 in0.0 mm 0.03 in0.8 mm
11:35 PM 31.9°F-0.1°C 28.0°F-2.2°C 86% 1.0 mph NNE1.6 kmh NNE 20.0 mph32.2 kmh 29.50 in999.0 mb 0.00 in0.0 mm 0.00 in0.0 mm 0.03 in0.8 mm
11:40 PM 31.8°F-0.1°C 28.0°F-2.2°C 86% Calm Calm -- 29.50 in999.0 mb 0.00 in0.0 mm 0.00 in0.0 mm 0.03 in0.8 mm
11:45 PM 31.7°F-0.2°C 27.9°F-2.3°C 86% Calm Calm -- 29.50 in999.0 mb 0.00 in0.0 mm 0.00 in0.0 mm 0.03 in0.8 mm
11:50 PM 31.7°F-0.2°C 27.9°F-2.3°C 86% 2.0 mph W3.2 kmh W -- 29.49 in998.6 mb 0.00 in0.0 mm 0.00 in0.0 mm 0.03 in0.8 mm
11:55 PM 31.6°F-0.2°C 27.9°F-2.3°C 86% Calm Calm -- 29.49 in998.6 mb 0.00 in0.0 mm 0.00 in0.0 mm 0.03 in0.8 mm